Friday, July 01, 2016
11:35 UTC
  |  Log In   |  Register Free
Airport Search:

Raleigh-Durham International Airport
(KRDU)

FAA data valid effective May 26 2016 - Jul 21 2016 (unless otherwise noted).

 
 
 
 
 
 
 
 
 
 
 
 
 
 
Current Aviation Weather for KRDU

Weather Summary


The most recent METAR observation for RDU was updated at: 12:51 UTC
METAR for KRDU is not available. Closest METAR is for KIGX
KRDU  (most recent observation was updatred at 11:05 UTC)
011051Z 23003KT 7SM SCT004 SCT018 BKN110 BKN250 22/21 A3000 RMK AO2 SLP153 T02220211

KIGX  (14.0 nm SE)   (most recent observation was updated at 11:05 UTC)
011056Z AUTO 00000KT 6SM BR CLR 22/20 A3000 RMK AO2 SLP151 T02220200

KTTA  (23.4 nm NE)   (most recent observation was updated at 11:12 UTC)
011120Z AUTO 00000KT 3SM BR CLR 21/20 A2998 RMK AO2 T02050200

TAF for KRDU is not available.
KRDU
011122Z 0112/0212 22004KT P6SM SCT016 BKN250 TEMPO 0112/0113 5SM BR BKN012 FM011600 18007KT P6SM VCSH SCT025 SCT150 TEMPO 0117/0120 VRB18G30KT 2SM TSRA BR SCT012 BKN024CB FM012300 19005KT P6SM SCT025 FM020900 VRB03KT 4SM BR SCT004

GlobalAir.com is loading additional information.
 Current Weather at RDU
73.0 F° (22.8 C°)

West winds at 3.5 mph
Pressure:
29.99 in
Humidity:
94%
Wind:
West at 3.5 mph
Dew Point:
71.1 F° (21.7 C°)
Visibility:
8.00 mi
RDU NOAA Radar




Find All Airport Services Find A Hotel Find A Rental Car Find A Golf Course Find A Restaurant $100 Hamburger



Airport Weather Forecast for KRDU

Translated METAR for KRDU (1051 UTC)
METAR:
KRDU 011051Z 23003KT 7SM SCT004 SCT018 BKN110 BKN250 22/21 A3000 RMK AO2 SLP153 T02220211
Conditions at:
KRDU (Raleigh-Durham Intl, NC) observed 1051 UTC 01 July 2016
Temperature:
22°C (71.6°F)
Dewpoint:
21°C (69.8°F) [RH = 94.1]
Pressure:
30 inches Hg (1015.9 mb)
pressure at sea level is 153 in Hg
Winds:
from the SW (230 degrees) at 3.5 mph (3 knots: 1.5 m/s)
Visibility:
7 mile(s)
Ceiling:
11,000 feet AGL
Clouds:
Scattered Clouds at 400 feet AGL
Scattered Clouds at 1,800 feet AGL
Broken Cloud Cover at 11,000 feet AGL
Broken Cloud Cover at 25,000 feet AGL
Remarks:
site is automated and HAS a precipitation sensor

Translated TAF for KRDU (Raleigh-Durham Intl, NC) (1122 UTC)
TAF text:
KRDU 011122Z 0112/0212 22004KT P6SM SCT016 BKN250
Forecast period:
Friday Jul 01 2016 12:00 UTC - Saturday Jul 02 2016 12:00 UTC
Forecast type:
FROM: standard forecast or significant change
Winds:
from the SW (220 degrees) at 4.6 mph (4 knots: 2.1 m/s)
Visibility:
6 or more mile(s) (9.7+ km)
Ceiling:
25,000 feet AGL
Clouds:
Scattered Clouds at 1,600 feet AGL
Broken Cloud Cover at 25,000 feet AGL
Weather:
no significant weather observed at this time
TAF text:
0112/0113 5SM BR BKN012
Forecast period:
Saturday Jul 02 2016 12:00 UTC - Saturday Jul 02 2016 13:00 UTC
Forecast type:
FROM: standard forecast or significant change
Winds:
Visibility:
5 mile(s) (8 km)
Ceiling:
1,200 feet AGL
Clouds:
Broken Cloud Cover at 1,200 feet AGL
Weather:
Moderate Mist
TAF text:
FM011600 18007KT P6SM VCSH SCT025 SCT150
Forecast period:
Friday Jul 01 2016 16:00 UTC - Friday Jul 01 2016 23:00 UTC
Forecast type:
FROM: standard forecast or significant change
Winds:
from the S (180 degrees) at 8.1 mph (7 knots: 3.6 m/s)
Visibility:
6 or more mile(s) (9.7+ km)
Ceiling:
at least 12,000 feet AGL
Clouds:
Scattered Clouds at 2,500 feet AGL
Scattered Clouds at 15,000 feet AGL
Weather:
Moderate In Vicinity Shower(s)
TAF text:
0117/0120 VRB18G30KT 2SM TSRA BR SCT012 BKN024CB
Forecast period:
Saturday Jul 02 2016 17:00 UTC - Saturday Jul 02 2016 20:00 UTC
Forecast type:
FROM: standard forecast or significant change
Winds:
variable wind direction at 20.7 mph (18 knots: 9.3 m/s)
gusting to 34.5 mph (30 knots: 15.4 m/s)
Visibility:
2 mile(s) (3.2 km)
Ceiling:
at least 12,000 feet AGL
Clouds:
Scattered Clouds at 1,200 feet AGL
Broken Cloud Cover
Weather:
Moderate Thunderstorm Rain
TAF text:
FM012300 19005KT P6SM SCT025
Forecast period:
Friday Jul 01 2016 23:00 UTC - Saturday Jul 02 2016 09:00 UTC
Forecast type:
FROM: standard forecast or significant change
Winds:
from the S (190 degrees) at 5.8 mph (5 knots: 2.6 m/s)
Visibility:
6 or more mile(s) (9.7+ km)
Ceiling:
at least 12,000 feet AGL
Clouds:
Scattered Clouds at 2,500 feet AGL
Weather:
no significant weather observed at this time
TAF text:
FM020900 VRB03KT 4SM BR SCT004
Forecast period:
Saturday Jul 02 2016 09:00 UTC - Saturday Jul 02 2016 12:00 UTC
Forecast type:
FROM: standard forecast or significant change
Winds:
variable wind direction at 3.5 mph (3 knots: 1.5 m/s)
Visibility:
4 mile(s) (6.4 km)
Ceiling:
at least 12,000 feet AGL
Clouds:
Scattered Clouds at 400 feet AGL
Weather:
Moderate Mist
FBO's on the Field
FBO Company Facility Photos Services Transportation Aviation Fuel Prices: Prices include tax
Catering Weather Repair Courtesy Rental Type 100LL JetA JetA+ MOGAS 8087
 
Signature Flight Support - RDU

Currently rated 3.8 by 3 people
FS:Shell
Last Updated: Jun-30
Login to update fuel prices
SS:
Contact Signature Flight Support - RDUMore FBO Information
 
TAC Air - RDU

Currently rated 5 by 3 people
FS:Avfuel
Last Updated: Jun-08
Login to update fuel prices
SS:
Contact TAC Air - RDUMore FBO Information
 
Add another FBO Facility Photos Catering Weather Repair Courtesy Rental Type 100LL JetA JetA+ MOGAS 8087
Services Transportation Aviation Fuel Prices: Prices include tax


model-print
model-print
model-print
model-print